KIDP

Independence Municipal Airport

Independence, Kansas, USA
METAR KIDP 152230Z AUTO 18008KT 10SM CLR 14/00 A2998 RMK AO2 T01360003
Observed Flight Rules
Nov-15 @ 22:30 UTC (42 minutes ago) Visual Flight Rules
Wind Visibility Clouds
180° at 8 knots 10 miles
  • Clear skies
Temperatures Readings
Current 14°C / 57°F
Dewpoint 0°C / 32°F
Humidity 39%
Altimeter 29.98" Hg
Pressure 1015 hPa
Elevation 251
METAR KIDP 152230Z AUTO 18008KT 10SM CLR 14/00 A2998 RMK AO2 T01360003
Observed Flight Rules
Nov-15 @ 22:30 UTC
(42 minutes ago)
VFR
Wind Visibility
180° at 8 knots 10 miles
Clouds
  • Clear skies
Temperature Dewpoint
14°C / 57°F 0°C / 32°F
Humidity Altimeter Pressure
39% 29.98" Hg 1015 hPa